createdAt,value
2023-05-05T00:01:08.146Z,8.07
2023-05-05T00:03:35.695Z,7.50
2023-05-05T00:06:02.803Z,8.00
2023-05-05T00:08:29.318Z,8.83
2023-05-05T00:10:56.527Z,7.20
2023-05-05T00:13:23.476Z,8.20
2023-05-05T00:15:51.786Z,8.87
2023-05-05T00:18:18.953Z,7.80
2023-05-05T00:20:48.767Z,7.50
2023-05-05T00:23:16.078Z,6.80
2023-05-05T00:25:42.737Z,7.40
2023-05-05T00:28:09.364Z,7.73
2023-05-05T00:30:36.233Z,7.30
2023-05-05T00:33:03.042Z,7.03
2023-05-05T00:35:29.619Z,8.50
2023-05-05T00:37:56.118Z,8.00
2023-05-05T00:40:22.698Z,7.90
2023-05-05T00:42:52.350Z,8.10
2023-05-05T00:45:20.020Z,6.77
2023-05-05T00:47:49.609Z,8.10
2023-05-05T00:50:21.533Z,7.03
2023-05-05T00:52:48.540Z,9.50
2023-05-05T00:55:15.133Z,7.93
2023-05-05T00:57:41.896Z,8.47
2023-05-05T01:00:10.294Z,7.83
2023-05-05T01:02:36.895Z,8.20
2023-05-05T01:05:04.060Z,6.87
2023-05-05T01:07:53.249Z,8.23
2023-05-05T01:10:33.773Z,7.70
2023-05-05T01:13:28.449Z,8.40
2023-05-05T01:16:27.654Z,7.70
2023-05-05T01:19:08.982Z,8.20
2023-05-05T01:21:41.336Z,8.40
2023-05-05T01:24:14.016Z,8.10
2023-05-05T01:26:59.227Z,7.20
2023-05-05T01:29:32.380Z,7.00
2023-05-05T01:32:03.345Z,7.00
2023-05-05T01:34:36.281Z,8.30
2023-05-05T01:37:11.505Z,7.10
2023-05-05T01:39:38.761Z,7.43
2023-05-05T01:42:08.683Z,7.43
2023-05-05T01:44:36.646Z,6.70
2023-05-05T01:47:04.593Z,6.90
2023-05-05T01:49:31.444Z,7.80
2023-05-05T01:51:58.910Z,7.70
2023-05-05T01:54:26.284Z,7.10
2023-05-05T01:56:54.384Z,6.93
2023-05-05T01:59:21.736Z,7.60
2023-05-05T02:01:48.973Z,6.43
2023-05-05T02:04:17.960Z,6.83
2023-05-05T02:06:45.264Z,6.93
2023-05-05T02:09:13.023Z,7.10
2023-05-05T02:11:40.173Z,6.53
2023-05-05T02:14:07.962Z,6.67
2023-05-05T02:16:35.829Z,6.17
2023-05-05T02:19:05.027Z,7.70
2023-05-05T02:21:32.328Z,7.53
2023-05-05T02:23:58.993Z,7.30
2023-05-05T02:26:26.238Z,7.53
2023-05-05T02:29:02.048Z,11.10
2023-05-05T02:31:29.768Z,14.20
2023-05-05T02:33:58.434Z,17.00
2023-05-05T02:36:28.552Z,21.17
2023-05-05T02:39:04.660Z,18.97
2023-05-05T02:41:36.781Z,22.67
2023-05-05T02:44:09.749Z,26.13
2023-05-05T02:46:38.071Z,27.47
2023-05-05T02:49:05.171Z,25.80
2023-05-05T02:51:33.019Z,25.47
2023-05-05T02:54:04.673Z,21.73
2023-05-05T02:56:40.717Z,24.33
2023-05-05T02:59:36.822Z,22.57
2023-05-05T03:02:21.373Z,19.83
2023-05-05T03:04:57.241Z,20.90
2023-05-05T03:07:30.755Z,17.07
2023-05-05T03:10:06.481Z,24.17
2023-05-05T03:12:40.482Z,15.20
2023-05-05T03:15:16.755Z,17.00
2023-05-05T03:17:44.220Z,14.13
2023-05-05T03:20:12.327Z,14.13
2023-05-05T03:22:41.489Z,13.57
2023-05-05T03:25:11.871Z,12.87
2023-05-05T03:27:38.442Z,13.77
2023-05-05T03:30:06.164Z,13.30
2023-05-05T03:32:35.431Z,14.73
2023-05-05T03:35:01.885Z,14.47
2023-05-05T03:37:32.282Z,11.63
2023-05-05T03:39:59.275Z,12.93
2023-05-05T03:42:25.765Z,10.87
2023-05-05T03:44:53.533Z,11.73
2023-05-05T03:47:24.448Z,12.13
2023-05-05T03:49:51.432Z,9.53
2023-05-05T03:52:18.121Z,10.03
2023-05-05T03:54:46.045Z,10.33
2023-05-05T03:57:12.738Z,11.80
2023-05-05T03:59:39.252Z,11.10
2023-05-05T04:02:06.171Z,10.37
2023-05-05T04:04:32.772Z,11.53
2023-05-05T04:06:59.294Z,9.90
2023-05-05T04:09:25.806Z,11.40
2023-05-05T04:11:52.339Z,10.47
2023-05-05T04:14:18.846Z,8.97
2023-05-05T04:16:45.375Z,9.60
2023-05-05T04:19:13.102Z,9.87
2023-05-05T04:21:40.398Z,9.60
2023-05-05T04:24:07.035Z,10.10
2023-05-05T04:26:34.105Z,10.07
2023-05-05T04:29:00.972Z,8.80
2023-05-05T04:31:27.590Z,9.47
2023-05-05T04:33:54.200Z,10.30
2023-05-05T04:36:20.930Z,9.90
2023-05-05T04:38:47.665Z,8.03
2023-05-05T04:41:14.244Z,8.83
2023-05-05T04:43:42.433Z,8.23
2023-05-05T04:46:09.180Z,7.60
2023-05-05T04:48:37.882Z,9.10
2023-05-05T04:51:05.921Z,9.30
2023-05-05T04:53:32.806Z,8.47
2023-05-05T04:56:00.721Z,9.40
2023-05-05T04:58:27.952Z,9.23
2023-05-05T05:00:55.080Z,9.00
2023-05-05T05:03:21.666Z,8.47
2023-05-05T05:05:48.295Z,9.30
2023-05-05T05:08:18.032Z,9.10
2023-05-05T05:10:44.836Z,9.00
2023-05-05T05:13:12.776Z,9.50
2023-05-05T05:15:39.733Z,8.97
2023-05-05T05:18:06.493Z,8.33
2023-05-05T05:20:33.022Z,9.50
2023-05-05T05:23:02.101Z,7.97
2023-05-05T05:25:30.160Z,9.67
2023-05-05T05:28:08.970Z,7.90
2023-05-05T05:30:40.475Z,9.30
2023-05-05T05:33:09.093Z,9.47
2023-05-05T05:35:36.084Z,8.90
2023-05-05T05:38:03.433Z,9.37
2023-05-05T05:40:30.214Z,8.70
2023-05-05T05:42:56.868Z,9.13
2023-05-05T05:45:24.930Z,8.37
2023-05-05T05:47:51.919Z,9.90
2023-05-05T05:50:18.641Z,7.80
2023-05-05T05:52:45.232Z,8.03
2023-05-05T05:55:12.037Z,8.00
2023-05-05T05:57:39.616Z,7.30
2023-05-05T06:00:08.956Z,8.10
2023-05-05T06:02:38.507Z,6.60
2023-05-05T06:05:07.424Z,7.83
2023-05-05T06:07:34.158Z,8.23
2023-05-05T06:10:10.861Z,6.70
2023-05-05T06:12:46.063Z,7.50
2023-05-05T06:15:12.667Z,7.17
2023-05-05T06:17:39.399Z,7.00
2023-05-05T06:20:07.019Z,6.80
2023-05-05T06:22:33.783Z,6.60
2023-05-05T06:25:00.550Z,7.67
2023-05-05T06:27:27.972Z,6.43
2023-05-05T06:29:54.459Z,6.33
2023-05-05T06:32:20.928Z,6.93
2023-05-05T06:34:48.219Z,6.30
2023-05-05T06:37:14.777Z,6.17
2023-05-05T06:39:41.660Z,6.37
2023-05-05T06:42:08.181Z,5.47
2023-05-05T06:44:36.335Z,5.53
2023-05-05T06:47:03.601Z,5.70
2023-05-05T06:49:30.134Z,5.50
2023-05-05T06:51:56.602Z,5.57
2023-05-05T06:54:23.093Z,5.60
2023-05-05T06:56:49.576Z,5.57
2023-05-05T06:59:16.050Z,5.60
2023-05-05T07:01:42.769Z,6.47
2023-05-05T07:04:09.341Z,5.33
2023-05-05T07:06:35.909Z,5.77
2023-05-05T07:09:03.455Z,5.77
2023-05-05T07:11:29.963Z,5.33
2023-05-05T07:13:56.413Z,4.33
2023-05-05T07:16:24.788Z,4.80
2023-05-05T07:18:51.278Z,4.67
2023-05-05T07:21:17.735Z,4.80
2023-05-05T07:23:46.255Z,4.63
2023-05-05T07:26:12.854Z,4.20
2023-05-05T07:28:39.361Z,4.77
2023-05-05T07:31:05.884Z,4.33
2023-05-05T07:33:32.307Z,4.00
2023-05-05T07:35:58.815Z,4.07
2023-05-05T07:38:25.677Z,4.07
2023-05-05T07:40:52.130Z,3.90
2023-05-05T07:43:18.616Z,4.20
2023-05-05T07:45:45.179Z,4.20
2023-05-05T07:48:11.731Z,4.30
2023-05-05T07:50:38.255Z,5.03
2023-05-05T07:53:13.803Z,4.67
2023-05-05T07:55:41.416Z,4.83
2023-05-05T07:58:08.488Z,5.00
2023-05-05T08:00:35.590Z,4.80
2023-05-05T08:03:02.306Z,4.70
2023-05-05T08:05:28.822Z,4.30
2023-05-05T08:07:55.324Z,4.60
2023-05-05T08:10:22.318Z,5.03
2023-05-05T08:12:49.116Z,4.73
2023-05-05T08:15:24.524Z,4.43
2023-05-05T08:17:52.436Z,5.13
2023-05-05T08:20:20.222Z,5.70
2023-05-05T08:22:47.205Z,4.33
2023-05-05T08:25:14.267Z,5.23
2023-05-05T08:27:41.997Z,4.90
2023-05-05T08:30:09.436Z,4.33
2023-05-05T08:32:36.094Z,4.50
2023-05-05T08:35:03.521Z,5.20
2023-05-05T08:37:30.461Z,4.60
2023-05-05T08:39:58.025Z,4.00
2023-05-05T08:42:36.133Z,3.83
2023-05-05T08:45:04.522Z,5.10
2023-05-05T08:47:32.255Z,4.70
2023-05-05T08:49:59.189Z,4.30
2023-05-05T08:52:29.459Z,4.80
2023-05-05T08:55:07.898Z,4.67
2023-05-05T08:57:46.119Z,5.03
2023-05-05T09:00:13.138Z,4.67
2023-05-05T09:02:40.584Z,4.97
2023-05-05T09:05:07.853Z,4.80
2023-05-05T09:07:34.813Z,4.90
2023-05-05T09:10:04.678Z,5.50
2023-05-05T09:12:31.856Z,5.03
2023-05-05T09:14:59.384Z,4.80
2023-05-05T09:17:26.322Z,5.17
2023-05-05T09:20:07.387Z,4.80
2023-05-05T09:22:41.612Z,4.20
2023-05-05T09:25:18.004Z,4.10
2023-05-05T09:27:48.932Z,5.30
2023-05-05T09:30:26.881Z,5.50
2023-05-05T09:32:54.841Z,4.70
2023-05-05T09:35:22.634Z,6.47
2023-05-05T09:37:49.199Z,5.70
2023-05-05T09:40:18.056Z,5.47
2023-05-05T09:42:44.969Z,4.90
2023-05-05T09:45:25.967Z,4.30
2023-05-05T09:47:58.792Z,5.17
2023-05-05T09:50:30.007Z,4.23
2023-05-05T09:53:00.999Z,4.27
2023-05-05T09:55:27.720Z,4.70
2023-05-05T09:57:54.239Z,5.00
2023-05-05T10:00:21.040Z,4.60
2023-05-05T10:02:47.598Z,5.03
2023-05-05T10:05:16.671Z,4.40
2023-05-05T10:07:44.935Z,4.27
2023-05-05T10:10:15.225Z,4.30
2023-05-05T10:12:42.143Z,4.60
2023-05-05T10:15:11.039Z,4.70
2023-05-05T10:18:02.236Z,4.63
2023-05-05T10:20:33.394Z,4.30
2023-05-05T10:23:02.688Z,4.80
2023-05-05T10:25:33.291Z,5.10
2023-05-05T10:28:00.877Z,5.30
2023-05-05T10:30:33.775Z,5.00
2023-05-05T10:33:27.299Z,4.57
2023-05-05T10:35:57.178Z,4.23
2023-05-05T10:38:26.822Z,4.70
2023-05-05T10:40:54.386Z,3.40
2023-05-05T10:43:21.108Z,4.67
2023-05-05T10:45:47.845Z,4.27
2023-05-05T10:48:21.200Z,3.57
2023-05-05T10:50:53.030Z,3.80
2023-05-05T10:53:23.588Z,4.23
2023-05-05T10:56:16.944Z,3.80
2023-05-05T10:58:55.575Z,4.00
2023-05-05T11:01:33.239Z,3.97
2023-05-05T11:04:20.814Z,3.17
2023-05-05T11:07:11.866Z,4.30
2023-05-05T11:09:57.645Z,3.80
2023-05-05T11:12:24.385Z,4.13
2023-05-05T11:15:28.351Z,3.80
2023-05-05T11:17:56.071Z,3.57
2023-05-05T11:20:41.961Z,3.97
2023-05-05T11:23:08.349Z,3.70
2023-05-05T11:25:34.898Z,3.60
2023-05-05T11:28:23.101Z,3.40
2023-05-05T11:30:59.228Z,3.30
2023-05-05T11:33:31.135Z,3.90
2023-05-05T11:35:59.237Z,4.40
2023-05-05T11:39:07.764Z,3.80
2023-05-05T11:41:58.544Z,3.80
2023-05-05T11:44:33.031Z,4.67
2023-05-05T11:47:02.757Z,3.90
2023-05-05T11:49:38.939Z,4.40
2023-05-05T11:52:07.431Z,4.60
2023-05-05T11:54:38.400Z,4.23
2023-05-05T11:57:08.606Z,4.33
2023-05-05T11:59:37.486Z,4.20
2023-05-05T12:02:04.521Z,3.97
2023-05-05T12:04:31.508Z,3.70
2023-05-05T12:06:58.881Z,4.10
2023-05-05T12:09:25.372Z,4.87
2023-05-05T12:11:53.048Z,3.97
2023-05-05T12:14:20.069Z,5.60
2023-05-05T12:16:59.050Z,4.23
2023-05-05T12:19:30.066Z,4.40
2023-05-05T12:21:56.894Z,4.43
2023-05-05T12:24:23.466Z,4.20
2023-05-05T12:26:50.047Z,4.50
2023-05-05T12:29:28.688Z,3.80
2023-05-05T12:31:55.753Z,4.17
2023-05-05T12:34:23.159Z,4.33
2023-05-05T12:36:49.724Z,6.77
2023-05-05T12:39:16.178Z,4.03
2023-05-05T12:41:42.731Z,4.73
2023-05-05T12:44:09.260Z,5.00
2023-05-05T12:46:46.016Z,4.47
2023-05-05T12:49:12.490Z,5.30
2023-05-05T12:51:39.351Z,4.77
2023-05-05T12:54:10.117Z,5.17
2023-05-05T12:56:43.995Z,4.73
2023-05-05T12:59:12.126Z,4.90
2023-05-05T13:02:00.120Z,4.90
2023-05-05T13:04:27.705Z,4.80
2023-05-05T13:07:10.593Z,5.83
2023-05-05T13:09:37.306Z,5.70
2023-05-05T13:12:04.437Z,5.37
2023-05-05T13:14:40.943Z,6.10
2023-05-05T13:17:07.636Z,5.83
2023-05-05T13:19:42.663Z,5.40
2023-05-05T13:22:13.127Z,5.73
2023-05-05T13:24:50.579Z,5.97
2023-05-05T13:27:19.127Z,4.77
2023-05-05T13:29:45.970Z,5.23
2023-05-05T13:32:12.538Z,5.67
2023-05-05T13:34:39.234Z,5.23
2023-05-05T13:37:05.991Z,5.33
2023-05-05T13:39:32.493Z,5.20
2023-05-05T13:41:58.940Z,5.37
2023-05-05T13:44:25.449Z,5.17
2023-05-05T13:46:51.959Z,5.60
2023-05-05T13:49:18.405Z,5.23
2023-05-05T13:51:46.668Z,5.20
2023-05-05T13:54:13.163Z,4.67
2023-05-05T13:56:39.651Z,4.13
2023-05-05T13:59:06.108Z,4.37
2023-05-05T14:01:32.684Z,5.03
2023-05-05T14:03:59.392Z,5.70
2023-05-05T14:06:26.376Z,5.80
2023-05-05T14:08:53.013Z,5.10
2023-05-05T14:11:20.784Z,5.10
2023-05-05T14:13:47.541Z,5.20
2023-05-05T14:16:14.406Z,5.07
2023-05-05T14:18:41.013Z,5.60
2023-05-05T14:21:07.643Z,5.90
2023-05-05T14:23:34.192Z,5.17
2023-05-05T14:26:01.061Z,6.27
2023-05-05T14:28:27.630Z,5.60
2023-05-05T14:30:54.210Z,5.47
2023-05-05T14:33:20.674Z,5.93
2023-05-05T14:35:47.115Z,5.40
2023-05-05T14:38:13.663Z,6.17
2023-05-05T14:40:40.598Z,5.47
2023-05-05T14:43:07.040Z,4.77
2023-05-05T14:45:33.581Z,4.70
2023-05-05T14:48:00.192Z,4.87
2023-05-05T14:50:26.746Z,5.13
2023-05-05T14:52:53.238Z,5.33
2023-05-05T14:55:19.730Z,6.20
2023-05-05T14:57:46.179Z,5.83
2023-05-05T15:00:13.288Z,6.70
2023-05-05T15:02:39.802Z,5.73
2023-05-05T15:05:07.201Z,5.90
2023-05-05T15:07:33.805Z,5.27
2023-05-05T15:10:00.338Z,5.37
2023-05-05T15:12:26.868Z,4.80
2023-05-05T15:14:53.371Z,5.23
2023-05-05T15:17:19.868Z,5.63
2023-05-05T15:19:46.389Z,5.63
2023-05-05T15:22:12.851Z,5.50
2023-05-05T15:24:39.348Z,7.40
2023-05-05T15:27:05.804Z,6.37
2023-05-05T15:29:32.333Z,4.60
2023-05-05T15:31:58.879Z,5.00
2023-05-05T15:34:26.179Z,4.40
2023-05-05T15:36:52.770Z,4.67
2023-05-05T15:39:19.396Z,4.40
2023-05-05T15:41:45.885Z,5.10
2023-05-05T15:44:12.475Z,4.50
2023-05-05T15:46:39.717Z,3.93
2023-05-05T15:49:06.242Z,4.33
2023-05-05T15:51:32.697Z,3.77
2023-05-05T15:53:59.553Z,4.17
2023-05-05T15:56:27.369Z,4.03
2023-05-05T15:58:54.189Z,4.40
2023-05-05T16:01:20.977Z,4.97
2023-05-05T16:03:47.503Z,3.90
2023-05-05T16:06:14.013Z,4.27
2023-05-05T16:08:40.574Z,4.53
2023-05-05T16:11:07.016Z,4.53
2023-05-05T16:13:33.484Z,4.47
2023-05-05T16:16:00.074Z,4.57
2023-05-05T16:18:26.647Z,3.80
2023-05-05T16:20:53.080Z,4.57
2023-05-05T16:23:19.648Z,4.77
2023-05-05T16:25:46.175Z,4.20
2023-05-05T16:28:12.638Z,4.00
2023-05-05T16:30:39.929Z,4.40
2023-05-05T16:33:06.815Z,4.57
2023-05-05T16:35:33.623Z,4.13
2023-05-05T16:38:00.184Z,4.03
2023-05-05T16:40:26.629Z,4.43
2023-05-05T16:42:53.098Z,5.10
2023-05-05T16:45:19.567Z,5.07
2023-05-05T16:47:46.076Z,5.60
2023-05-05T16:50:12.572Z,4.70
2023-05-05T16:52:39.061Z,4.77
2023-05-05T16:55:05.793Z,5.17
2023-05-05T16:57:32.271Z,5.53
2023-05-05T16:59:58.716Z,7.93
2023-05-05T17:02:25.232Z,8.17
2023-05-05T17:04:51.773Z,6.60
2023-05-05T17:07:18.273Z,5.90
2023-05-05T17:09:44.885Z,5.80
2023-05-05T17:12:11.357Z,5.53
2023-05-05T17:14:37.878Z,5.17
2023-05-05T17:17:04.975Z,7.43
2023-05-05T17:19:31.593Z,11.17
2023-05-05T17:21:58.065Z,16.20
2023-05-05T17:24:24.514Z,9.83
2023-05-05T17:26:50.976Z,9.00
2023-05-05T17:29:21.591Z,8.57
2023-05-05T17:31:48.096Z,7.63
2023-05-05T17:34:14.572Z,7.33
2023-05-05T17:36:41.114Z,6.43
2023-05-05T17:39:07.672Z,7.20
2023-05-05T17:41:34.165Z,6.80
2023-05-05T17:44:00.709Z,7.27
2023-05-05T17:46:27.380Z,6.77
2023-05-05T17:48:54.137Z,6.17
2023-05-05T17:51:20.642Z,6.07
2023-05-05T17:53:47.322Z,6.50
2023-05-05T17:56:13.782Z,6.27
2023-05-05T17:58:40.190Z,6.03
2023-05-05T18:01:06.664Z,6.00
2023-05-05T18:03:33.323Z,5.80
2023-05-05T18:05:59.854Z,6.57
2023-05-05T18:08:26.937Z,6.73
2023-05-05T18:10:54.266Z,6.10
2023-05-05T18:13:21.441Z,5.23
2023-05-05T18:15:48.009Z,6.60
2023-05-05T18:18:14.665Z,6.33
2023-05-05T18:20:41.192Z,7.80
2023-05-05T18:23:07.688Z,6.30
2023-05-05T18:25:34.122Z,7.70
2023-05-05T18:28:00.566Z,7.40
2023-05-05T18:30:27.076Z,6.97
2023-05-05T18:32:53.635Z,7.17
2023-05-05T18:35:21.300Z,8.07
2023-05-05T18:37:47.877Z,7.90
2023-05-05T18:40:14.396Z,7.13
2023-05-05T18:42:41.594Z,9.03
2023-05-05T18:45:10.591Z,10.47
2023-05-05T18:47:38.886Z,10.10
2023-05-05T18:50:06.465Z,10.40
2023-05-05T18:52:33.555Z,11.07
2023-05-05T18:55:00.153Z,13.23
2023-05-05T18:57:27.290Z,9.00
2023-05-05T18:59:53.773Z,8.17
2023-05-05T19:02:20.242Z,10.67
2023-05-05T19:04:46.829Z,13.07
2023-05-05T19:07:23.845Z,11.23
2023-05-05T19:09:58.076Z,9.90
2023-05-05T19:12:24.600Z,8.30
2023-05-05T19:14:51.126Z,12.90
2023-05-05T19:17:17.569Z,11.80
2023-05-05T19:19:44.080Z,18.23
2023-05-05T19:22:10.530Z,12.47
2023-05-05T19:24:37.036Z,13.60
2023-05-05T19:27:03.879Z,8.63
2023-05-05T19:29:32.900Z,8.87
2023-05-05T19:31:59.399Z,14.03
2023-05-05T19:34:26.068Z,11.30
2023-05-05T19:36:52.537Z,10.80
2023-05-05T19:39:19.024Z,8.50
2023-05-05T19:42:06.962Z,8.23
2023-05-05T19:44:33.406Z,7.60
2023-05-05T19:46:59.896Z,7.40
2023-05-05T19:49:26.439Z,8.87
2023-05-05T19:51:54.306Z,8.13
2023-05-05T19:54:21.204Z,7.80
2023-05-05T19:56:47.722Z,9.07
2023-05-05T19:59:14.179Z,7.90
2023-05-05T20:01:40.715Z,8.03
2023-05-05T20:04:07.196Z,7.33
2023-05-05T20:06:33.773Z,7.33
2023-05-05T20:09:00.602Z,8.17
2023-05-05T20:11:27.116Z,8.73
2023-05-05T20:13:53.703Z,7.80
2023-05-05T20:16:21.545Z,8.80
2023-05-05T20:18:48.143Z,9.00
2023-05-05T20:21:16.587Z,12.60
2023-05-05T20:23:44.248Z,11.40
2023-05-05T20:26:11.343Z,9.53
2023-05-05T20:28:39.135Z,9.40
2023-05-05T20:31:06.600Z,10.17
2023-05-05T20:33:33.116Z,9.60
2023-05-05T20:35:59.616Z,9.67
2023-05-05T20:38:26.057Z,9.30
2023-05-05T20:40:52.499Z,8.70
2023-05-05T20:43:19.194Z,10.87
2023-05-05T20:45:45.610Z,9.93
2023-05-05T20:48:12.126Z,9.00
2023-05-05T20:50:38.999Z,9.73
2023-05-05T20:53:07.791Z,9.80
2023-05-05T20:55:34.256Z,12.50
2023-05-05T20:58:02.914Z,9.33
2023-05-05T21:00:29.377Z,11.20
2023-05-05T21:02:57.021Z,11.43
2023-05-05T21:05:23.902Z,11.60
2023-05-05T21:07:50.972Z,11.37
2023-05-05T21:10:17.458Z,10.40
2023-05-05T21:12:43.941Z,10.53
2023-05-05T21:15:11.334Z,10.63
2023-05-05T21:17:38.350Z,10.00
2023-05-05T21:20:05.190Z,10.87
2023-05-05T21:22:31.697Z,11.30
2023-05-05T21:25:10.778Z,10.73
2023-05-05T21:27:37.248Z,10.47
2023-05-05T21:30:03.884Z,11.10
2023-05-05T21:32:30.421Z,10.23
2023-05-05T21:34:56.963Z,11.03
2023-05-05T21:37:23.437Z,12.80
2023-05-05T21:39:49.992Z,10.00
2023-05-05T21:42:16.452Z,8.97
2023-05-05T21:44:42.914Z,9.20
2023-05-05T21:47:09.591Z,8.30
2023-05-05T21:49:36.041Z,7.67
2023-05-05T21:52:02.489Z,6.80
2023-05-05T21:54:30.018Z,6.70
2023-05-05T21:56:56.550Z,6.33
2023-05-05T21:59:22.986Z,6.30
2023-05-05T22:01:49.628Z,6.50
2023-05-05T22:04:16.086Z,5.67
2023-05-05T22:06:42.520Z,5.37
2023-05-05T22:09:08.979Z,4.97
2023-05-05T22:11:35.696Z,5.07
2023-05-05T22:14:02.173Z,4.70
2023-05-05T22:16:28.687Z,5.40
2023-05-05T22:18:55.185Z,4.60
2023-05-05T22:21:21.962Z,3.90
2023-05-05T22:23:48.446Z,3.80
2023-05-05T22:26:15.036Z,3.30
2023-05-05T22:28:41.552Z,3.03
2023-05-05T22:31:08.071Z,3.50
2023-05-05T22:33:35.985Z,3.50
2023-05-05T22:36:02.460Z,3.07
2023-05-05T22:38:28.990Z,2.70
2023-05-05T22:40:55.473Z,3.07
2023-05-05T22:43:21.928Z,3.17
2023-05-05T22:45:48.481Z,3.23
2023-05-05T22:48:15.016Z,3.20
2023-05-05T22:50:41.504Z,2.80
2023-05-05T22:53:08.071Z,2.57
2023-05-05T22:55:34.547Z,2.97
2023-05-05T22:58:01.009Z,4.13
2023-05-05T23:00:28.255Z,2.30
2023-05-05T23:02:54.928Z,2.73
2023-05-05T23:05:21.469Z,2.50
2023-05-05T23:07:48.086Z,3.10
2023-05-05T23:10:14.537Z,2.87
2023-05-05T23:12:41.050Z,3.00
2023-05-05T23:15:08.373Z,3.83
2023-05-05T23:17:35.060Z,3.83
2023-05-05T23:20:02.466Z,3.53
2023-05-05T23:22:28.938Z,3.50
2023-05-05T23:24:55.440Z,3.50
2023-05-05T23:27:22.963Z,3.70
2023-05-05T23:29:49.509Z,3.60
2023-05-05T23:32:16.004Z,4.00
2023-05-05T23:34:42.889Z,3.00
2023-05-05T23:37:09.888Z,3.23
2023-05-05T23:39:36.325Z,2.27
2023-05-05T23:42:03.032Z,2.80
2023-05-05T23:44:29.632Z,3.30
2023-05-05T23:46:56.071Z,2.67
2023-05-05T23:49:23.799Z,2.20
2023-05-05T23:51:50.300Z,2.40
2023-05-05T23:54:16.736Z,2.43
2023-05-05T23:56:43.280Z,2.03
2023-05-05T23:59:09.736Z,2.47
